createdAt,value
2022-11-13T00:01:17.984Z,19.11
2022-11-13T00:04:04.089Z,19.11
2022-11-13T00:06:52.510Z,19.11
2022-11-13T00:09:40.553Z,19.09
2022-11-13T00:12:26.300Z,19.09
2022-11-13T00:15:12.282Z,19.10
2022-11-13T00:18:01.628Z,19.08
2022-11-13T00:20:47.561Z,19.09
2022-11-13T00:23:35.043Z,19.08
2022-11-13T00:26:24.260Z,19.07
2022-11-13T00:29:10.289Z,19.07
2022-11-13T00:31:55.692Z,19.07
2022-11-13T00:34:47.684Z,19.07
2022-11-13T00:37:34.239Z,19.05
2022-11-13T00:40:20.170Z,19.05
2022-11-13T00:43:05.803Z,19.04
2022-11-13T00:45:51.860Z,19.04
2022-11-13T00:48:38.102Z,19.03
2022-11-13T00:51:24.202Z,19.04
2022-11-13T00:54:10.170Z,19.03
2022-11-13T00:56:56.051Z,19.03
2022-11-13T00:59:41.895Z,19.03
2022-11-13T01:02:27.881Z,19.03
2022-11-13T01:05:14.099Z,19.02
2022-11-13T01:07:59.479Z,19.02
2022-11-13T01:10:53.575Z,19.02
2022-11-13T01:13:41.617Z,19.01
2022-11-13T01:16:28.455Z,19.01
2022-11-13T01:19:14.210Z,19.02
2022-11-13T01:21:59.804Z,19.01
2022-11-13T01:24:45.628Z,19.00
2022-11-13T01:27:31.481Z,19.01
2022-11-13T01:30:17.761Z,19.00
2022-11-13T01:33:03.615Z,18.99
2022-11-13T01:35:49.626Z,18.99
2022-11-13T01:38:36.979Z,18.99
2022-11-13T01:41:33.334Z,18.98
2022-11-13T01:44:20.071Z,18.99
2022-11-13T01:47:05.753Z,18.98
2022-11-13T01:49:54.963Z,18.99
2022-11-13T01:52:42.372Z,18.97
2022-11-13T01:55:28.334Z,18.98
2022-11-13T01:58:14.815Z,18.98
2022-11-13T02:01:00.587Z,18.97
2022-11-13T02:03:46.370Z,18.96
2022-11-13T02:06:42.381Z,18.97
2022-11-13T02:09:33.761Z,18.96
2022-11-13T02:12:32.822Z,18.96
2022-11-13T02:15:23.658Z,18.97
2022-11-13T02:18:11.259Z,18.97
2022-11-13T02:21:06.890Z,18.96
2022-11-13T02:24:18.821Z,18.96
2022-11-13T02:27:15.846Z,18.96
2022-11-13T02:30:16.303Z,18.95
2022-11-13T02:33:19.116Z,18.94
2022-11-13T02:36:07.257Z,18.95
2022-11-13T02:38:56.153Z,18.95
2022-11-13T02:41:41.922Z,18.93
2022-11-13T02:44:27.863Z,18.93
2022-11-13T02:47:13.670Z,18.94
2022-11-13T02:49:59.692Z,18.93
2022-11-13T02:52:45.515Z,18.94
2022-11-13T02:55:31.804Z,18.93
2022-11-13T02:58:17.670Z,18.93
2022-11-13T03:01:04.462Z,18.92
2022-11-13T03:03:58.450Z,18.93
2022-11-13T03:06:44.530Z,18.91
2022-11-13T03:09:30.735Z,18.92
2022-11-13T03:12:16.359Z,18.93
2022-11-13T03:15:02.476Z,18.91
2022-11-13T03:17:48.093Z,18.91
2022-11-13T03:20:37.146Z,18.91
2022-11-13T03:23:22.820Z,18.91
2022-11-13T03:26:11.359Z,18.91
2022-11-13T03:28:57.033Z,18.91
2022-11-13T03:31:42.849Z,18.90
2022-11-13T03:34:28.965Z,18.90
2022-11-13T03:37:14.924Z,18.89
2022-11-13T03:40:00.768Z,18.90
2022-11-13T03:42:46.556Z,18.88
2022-11-13T03:45:32.282Z,18.88
2022-11-13T03:48:18.397Z,18.89
2022-11-13T03:51:04.162Z,18.88
2022-11-13T03:53:49.940Z,18.88
2022-11-13T03:56:35.850Z,18.87
2022-11-13T03:59:21.649Z,18.87
2022-11-13T04:02:07.529Z,18.87
2022-11-13T04:04:53.298Z,18.86
2022-11-13T04:07:39.122Z,18.87
2022-11-13T04:10:25.274Z,18.88
2022-11-13T04:13:11.191Z,18.86
2022-11-13T04:15:57.125Z,18.86
2022-11-13T04:18:42.965Z,18.86
2022-11-13T04:21:28.896Z,18.86
2022-11-13T04:24:14.856Z,18.85
2022-11-13T04:27:00.710Z,18.85
2022-11-13T04:29:46.531Z,18.85
2022-11-13T04:32:33.098Z,18.86
2022-11-13T04:35:18.818Z,18.85
2022-11-13T04:38:04.785Z,18.85
2022-11-13T04:41:11.565Z,18.84
2022-11-13T04:43:57.114Z,18.84
2022-11-13T04:46:42.929Z,18.84
2022-11-13T04:49:28.781Z,18.84
2022-11-13T04:52:15.012Z,18.84
2022-11-13T04:55:00.777Z,18.84
2022-11-13T04:57:46.739Z,18.84
2022-11-13T05:00:32.291Z,18.83
2022-11-13T05:03:18.381Z,18.83
2022-11-13T05:06:09.209Z,18.83
2022-11-13T05:08:55.019Z,18.83
2022-11-13T05:11:40.949Z,18.84
2022-11-13T05:14:27.015Z,18.83
2022-11-13T05:17:13.708Z,18.84
2022-11-13T05:19:59.334Z,18.83
2022-11-13T05:22:45.092Z,18.83
2022-11-13T05:25:31.424Z,18.84
2022-11-13T05:28:17.541Z,18.83
2022-11-13T05:31:07.678Z,18.83
2022-11-13T05:33:53.973Z,18.83
2022-11-13T05:36:39.991Z,18.83
2022-11-13T05:39:25.542Z,18.81
2022-11-13T05:42:11.253Z,18.82
2022-11-13T05:44:57.093Z,18.82
2022-11-13T05:47:42.864Z,18.82
2022-11-13T05:50:28.741Z,18.81
2022-11-13T05:53:14.617Z,18.82
2022-11-13T05:56:16.344Z,18.80
2022-11-13T05:59:03.732Z,18.81
2022-11-13T06:01:49.385Z,18.81
2022-11-13T06:04:35.433Z,18.80
2022-11-13T06:07:21.154Z,18.80
2022-11-13T06:10:07.349Z,18.80
2022-11-13T06:12:54.858Z,18.78
2022-11-13T06:15:40.684Z,18.79
2022-11-13T06:18:26.811Z,18.79
2022-11-13T06:21:18.913Z,18.78
2022-11-13T06:24:05.758Z,18.77
2022-11-13T06:26:51.469Z,18.78
2022-11-13T06:29:37.262Z,18.78
2022-11-13T06:32:23.129Z,18.78
2022-11-13T06:35:09.138Z,18.77
2022-11-13T06:37:56.017Z,18.77
2022-11-13T06:40:41.900Z,18.77
2022-11-13T06:43:28.665Z,18.76
2022-11-13T06:46:20.295Z,18.76
2022-11-13T06:49:06.048Z,18.76
2022-11-13T06:51:51.694Z,18.76
2022-11-13T06:54:37.540Z,18.76
2022-11-13T06:57:23.345Z,18.76
2022-11-13T07:00:09.986Z,18.75
2022-11-13T07:02:55.653Z,18.76
2022-11-13T07:05:41.681Z,18.74
2022-11-13T07:08:27.864Z,18.74
2022-11-13T07:11:19.994Z,18.75
2022-11-13T07:14:05.994Z,18.74
2022-11-13T07:17:08.598Z,18.74
2022-11-13T07:19:55.508Z,18.75
2022-11-13T07:22:41.341Z,18.73
2022-11-13T07:25:28.310Z,18.75
2022-11-13T07:28:13.836Z,18.74
2022-11-13T07:31:00.270Z,18.74
2022-11-13T07:33:48.968Z,18.74
2022-11-13T07:36:34.475Z,18.73
2022-11-13T07:39:20.392Z,18.73
2022-11-13T07:42:06.233Z,18.74
2022-11-13T07:44:55.607Z,18.73
2022-11-13T07:47:41.782Z,18.73
2022-11-13T07:50:34.634Z,18.72
2022-11-13T07:53:24.241Z,18.73
2022-11-13T07:56:10.038Z,18.73
2022-11-13T07:58:56.038Z,18.74
2022-11-13T08:01:41.813Z,18.72
2022-11-13T08:04:28.398Z,18.73
2022-11-13T08:07:14.004Z,18.73
2022-11-13T08:09:59.864Z,18.71
2022-11-13T08:12:46.297Z,18.73
2022-11-13T08:15:32.702Z,18.73
2022-11-13T08:18:18.561Z,18.69
2022-11-13T08:21:08.080Z,18.59
2022-11-13T08:23:57.681Z,18.52
2022-11-13T08:26:43.495Z,18.43
2022-11-13T08:29:29.505Z,18.33
2022-11-13T08:32:16.579Z,18.28
2022-11-13T08:35:02.134Z,18.24
2022-11-13T08:37:47.840Z,18.22
2022-11-13T08:40:34.609Z,18.21
2022-11-13T08:43:20.102Z,18.23
2022-11-13T08:46:06.136Z,18.22
2022-11-13T08:48:51.754Z,18.21
2022-11-13T08:51:37.463Z,18.15
2022-11-13T08:54:23.388Z,18.13
2022-11-13T08:57:09.325Z,18.10
2022-11-13T08:59:55.046Z,18.09
2022-11-13T09:02:40.879Z,18.09
2022-11-13T09:05:27.036Z,18.12
2022-11-13T09:08:12.760Z,18.18
2022-11-13T09:11:03.781Z,18.24
2022-11-13T09:13:53.254Z,18.29
2022-11-13T09:16:39.640Z,18.32
2022-11-13T09:19:25.979Z,18.37
2022-11-13T09:22:12.264Z,18.39
2022-11-13T09:24:57.853Z,18.42
2022-11-13T09:27:43.634Z,18.44
2022-11-13T09:30:30.720Z,18.46
2022-11-13T09:33:16.518Z,18.47
2022-11-13T09:36:02.929Z,18.49
2022-11-13T09:38:48.516Z,18.48
2022-11-13T09:41:55.000Z,18.50
2022-11-13T09:45:21.425Z,18.52
2022-11-13T09:48:20.649Z,18.52
2022-11-13T09:51:31.318Z,18.52
2022-11-13T09:54:18.029Z,18.53
2022-11-13T09:57:25.973Z,18.54
2022-11-13T10:00:19.251Z,18.55
2022-11-13T10:04:00.365Z,18.56
2022-11-13T10:07:21.078Z,18.57
2022-11-13T10:10:37.548Z,18.57
2022-11-13T10:13:32.813Z,18.57
2022-11-13T10:16:29.381Z,18.58
2022-11-13T10:19:28.271Z,18.58
2022-11-13T10:22:45.339Z,18.58
2022-11-13T10:25:35.921Z,18.57
2022-11-13T10:31:40.547Z,18.57
2022-11-13T10:34:27.018Z,18.57
2022-11-13T10:37:30.796Z,18.59
2022-11-13T10:40:26.520Z,18.58
2022-11-13T10:43:24.669Z,18.59
2022-11-13T10:46:21.066Z,18.60
2022-11-13T10:49:22.161Z,18.60
2022-11-13T10:52:25.691Z,18.61
2022-11-13T10:55:37.968Z,18.60
2022-11-13T10:58:23.671Z,18.62
2022-11-13T11:01:27.739Z,18.61
2022-11-13T11:04:24.139Z,18.64
2022-11-13T11:07:20.588Z,18.64
2022-11-13T11:10:32.501Z,18.66
2022-11-13T11:13:23.545Z,18.66
2022-11-13T11:16:14.564Z,18.66
2022-11-13T11:19:08.698Z,18.66
2022-11-13T11:22:04.597Z,18.67
2022-11-13T11:25:19.316Z,18.67
2022-11-13T11:28:27.834Z,18.67
2022-11-13T11:31:30.829Z,18.67
2022-11-13T11:34:32.197Z,18.68
2022-11-13T11:37:23.000Z,18.68
2022-11-13T11:40:14.499Z,18.68
2022-11-13T11:43:12.775Z,18.69
2022-11-13T11:45:58.514Z,18.69
2022-11-13T11:48:44.154Z,18.70
2022-11-13T11:51:31.537Z,18.71
2022-11-13T11:54:40.299Z,18.72
2022-11-13T12:02:22.920Z,18.73
2022-11-13T12:05:21.172Z,18.74
2022-11-13T12:08:17.476Z,18.78
2022-11-13T12:11:21.887Z,18.80
2022-11-13T12:14:16.150Z,18.80
2022-11-13T12:17:17.085Z,18.81
2022-11-13T12:20:19.732Z,18.80
2022-11-13T12:23:11.285Z,18.80
2022-11-13T12:26:09.503Z,18.80
2022-11-13T12:29:14.918Z,18.80
2022-11-13T12:32:16.420Z,18.80
2022-11-13T12:35:11.531Z,18.80
2022-11-13T12:38:17.615Z,18.80
2022-11-13T12:41:33.199Z,18.80
2022-11-13T12:44:30.074Z,18.82
2022-11-13T12:47:18.327Z,18.81
2022-11-13T12:50:32.581Z,18.82
2022-11-13T12:53:29.135Z,18.82
2022-11-13T12:56:19.704Z,18.82
2022-11-13T12:59:31.022Z,18.83
2022-11-13T13:02:35.840Z,18.83
2022-11-13T13:05:57.070Z,18.83
2022-11-13T13:09:05.422Z,18.83
2022-11-13T13:12:23.341Z,18.85
2022-11-13T13:15:15.929Z,18.85
2022-11-13T13:18:15.350Z,18.85
2022-11-13T13:21:14.074Z,18.85
2022-11-13T13:24:26.095Z,18.84
2022-11-13T13:27:23.961Z,18.87
2022-11-13T13:30:31.409Z,18.86
2022-11-13T13:33:44.580Z,18.87
2022-11-13T13:36:42.534Z,18.87
2022-11-13T13:39:56.212Z,18.87
2022-11-13T13:42:56.204Z,18.89
2022-11-13T13:45:56.629Z,18.88
2022-11-13T13:48:45.552Z,18.89
2022-11-13T13:51:45.800Z,18.88
2022-11-13T13:54:36.856Z,18.88
2022-11-13T13:57:25.021Z,18.90
2022-11-13T14:00:15.889Z,18.90
2022-11-13T14:03:03.718Z,18.89
2022-11-13T14:05:49.857Z,18.91
2022-11-13T14:08:35.494Z,18.90
2022-11-13T14:11:32.173Z,18.91
2022-11-13T14:14:21.256Z,18.92
2022-11-13T14:17:10.072Z,18.93
2022-11-13T14:20:01.067Z,18.91
2022-11-13T14:22:55.330Z,18.93
2022-11-13T14:25:44.761Z,18.94
2022-11-13T14:28:34.558Z,18.93
2022-11-13T14:31:30.309Z,18.94
2022-11-13T14:34:20.125Z,18.94
2022-11-13T14:37:19.259Z,18.94
2022-11-13T14:40:27.032Z,18.94
2022-11-13T14:43:23.272Z,18.93
2022-11-13T14:46:26.986Z,18.93
2022-11-13T14:49:30.363Z,18.95
2022-11-13T14:52:27.876Z,18.94
2022-11-13T14:55:30.871Z,18.93
2022-11-13T14:58:27.935Z,18.95
2022-11-13T15:01:17.096Z,18.94
2022-11-13T15:04:03.129Z,18.93
2022-11-13T15:06:50.896Z,18.93
2022-11-13T15:09:36.881Z,18.94
2022-11-13T15:12:23.265Z,18.93
2022-11-13T15:15:30.662Z,18.94
2022-11-13T15:18:19.430Z,18.94
2022-11-13T15:21:05.375Z,18.93
2022-11-13T15:23:50.941Z,18.94
2022-11-13T15:26:36.863Z,18.94
2022-11-13T15:29:22.780Z,18.94
2022-11-13T15:32:11.932Z,18.94
2022-11-13T15:34:57.525Z,18.96
2022-11-13T15:37:45.336Z,18.96
2022-11-13T15:40:31.223Z,18.96
2022-11-13T15:43:22.112Z,18.96
2022-11-13T15:46:14.867Z,18.97
2022-11-13T15:49:00.469Z,18.96
2022-11-13T15:51:46.532Z,18.97
2022-11-13T15:54:34.484Z,18.97
2022-11-13T15:57:23.069Z,18.97
2022-11-13T16:00:17.101Z,18.97
2022-11-13T16:03:04.744Z,18.96
2022-11-13T16:05:51.237Z,18.96
2022-11-13T16:08:37.336Z,18.93
2022-11-13T16:11:23.146Z,18.93
2022-11-13T16:14:09.086Z,18.92
2022-11-13T16:16:55.285Z,18.93
2022-11-13T16:19:41.935Z,18.92
2022-11-13T16:22:30.362Z,18.91
2022-11-13T16:25:18.944Z,18.92
2022-11-13T16:28:06.448Z,18.90
2022-11-13T16:30:52.482Z,18.90
2022-11-13T16:33:38.406Z,18.90
2022-11-13T16:36:24.453Z,18.90
2022-11-13T16:39:16.341Z,18.91
2022-11-13T16:42:02.413Z,18.92
2022-11-13T16:44:48.178Z,18.92
2022-11-13T16:47:34.024Z,18.92
2022-11-13T16:50:24.844Z,18.92
2022-11-13T16:53:10.567Z,18.91
2022-11-13T16:55:57.155Z,18.90
2022-11-13T16:58:43.525Z,18.92
2022-11-13T17:01:29.572Z,18.91
2022-11-13T17:04:15.554Z,18.92
2022-11-13T17:07:01.292Z,18.90
2022-11-13T17:09:55.095Z,18.91
2022-11-13T17:12:52.044Z,18.92
2022-11-13T17:15:37.628Z,18.92
2022-11-13T17:18:23.613Z,18.92
2022-11-13T17:21:09.730Z,18.91
2022-11-13T17:24:03.503Z,18.92
2022-11-13T17:26:49.505Z,18.92
2022-11-13T17:29:35.423Z,18.93
2022-11-13T17:32:21.193Z,18.92
2022-11-13T17:35:08.012Z,18.92
2022-11-13T17:37:53.449Z,18.92
2022-11-13T17:40:39.229Z,18.93
2022-11-13T17:43:25.117Z,18.93
2022-11-13T17:46:13.862Z,18.93
2022-11-13T17:48:59.961Z,18.92
2022-11-13T17:51:45.663Z,18.93
2022-11-13T17:54:31.501Z,18.94
2022-11-13T17:57:17.225Z,18.92
2022-11-13T18:00:04.554Z,18.93
2022-11-13T18:02:50.153Z,18.94
2022-11-13T18:05:40.444Z,18.94
2022-11-13T18:08:26.520Z,18.94
2022-11-13T18:11:19.397Z,18.96
2022-11-13T18:14:04.914Z,18.96
2022-11-13T18:16:50.675Z,18.98
2022-11-13T18:19:36.568Z,18.98
2022-11-13T18:22:22.475Z,18.98
2022-11-13T18:25:13.751Z,18.98
2022-11-13T18:27:59.490Z,18.97
2022-11-13T18:30:45.373Z,18.97
2022-11-13T18:33:32.639Z,18.96
2022-11-13T18:36:18.534Z,18.96
2022-11-13T18:39:04.437Z,18.95
2022-11-13T18:41:50.616Z,18.95
2022-11-13T18:44:37.250Z,18.96
2022-11-13T18:47:23.195Z,18.95
2022-11-13T18:50:09.518Z,18.96
2022-11-13T18:52:55.966Z,18.95
2022-11-13T18:55:41.629Z,18.95
2022-11-13T18:58:28.278Z,18.95
2022-11-13T19:01:22.235Z,18.94
2022-11-13T19:04:27.687Z,18.95
2022-11-13T19:07:18.884Z,18.95
2022-11-13T19:10:05.124Z,18.95
2022-11-13T19:12:50.960Z,18.96
2022-11-13T19:15:38.304Z,18.95
2022-11-13T19:18:27.406Z,18.95
2022-11-13T19:21:15.885Z,18.95
2022-11-13T19:24:02.701Z,18.95
2022-11-13T19:26:48.347Z,18.94
2022-11-13T19:29:36.154Z,18.94
2022-11-13T19:32:22.031Z,18.94
2022-11-13T19:35:08.317Z,18.92
2022-11-13T19:37:57.942Z,18.94
2022-11-13T19:40:46.659Z,18.93
2022-11-13T19:43:33.730Z,18.94
2022-11-13T19:46:21.072Z,18.96
2022-11-13T19:49:07.334Z,18.94
2022-11-13T19:51:56.416Z,18.95
2022-11-13T19:54:42.154Z,18.94
2022-11-13T19:57:28.070Z,18.96
2022-11-13T20:00:14.255Z,18.95
2022-11-13T20:03:02.647Z,18.95
2022-11-13T20:05:56.280Z,18.96
2022-11-13T20:08:42.489Z,18.96
2022-11-13T20:11:28.130Z,18.96
2022-11-13T20:14:14.418Z,18.96
2022-11-13T20:17:00.284Z,18.95
2022-11-13T20:19:48.133Z,18.95
2022-11-13T20:22:42.455Z,18.95
2022-11-13T20:30:14.908Z,18.96
2022-11-13T20:33:00.688Z,18.97
2022-11-13T20:35:53.428Z,18.96
2022-11-13T20:38:50.057Z,18.95
2022-11-13T20:41:36.858Z,18.97
2022-11-13T20:44:22.367Z,18.95
2022-11-13T20:47:08.042Z,18.96
2022-11-13T20:49:56.934Z,18.96
2022-11-13T20:52:42.940Z,18.96
2022-11-13T20:55:29.041Z,18.95
2022-11-13T20:58:14.636Z,18.97
2022-11-13T21:01:12.723Z,18.97
2022-11-13T21:03:59.619Z,18.96
2022-11-13T21:06:45.784Z,18.98
2022-11-13T21:09:41.133Z,18.98
2022-11-13T21:12:26.733Z,18.99
2022-11-13T21:15:13.586Z,19.00
2022-11-13T21:17:59.456Z,19.00
2022-11-13T21:20:45.247Z,19.00
2022-11-13T21:23:37.735Z,19.00
2022-11-13T21:26:24.402Z,19.00
2022-11-13T21:29:10.093Z,19.00
2022-11-13T21:32:04.820Z,19.01
2022-11-13T21:34:50.354Z,19.01
2022-11-13T21:37:36.183Z,19.02
2022-11-13T21:40:22.144Z,19.01
2022-11-13T21:43:07.782Z,19.01
2022-11-13T21:46:06.389Z,19.01
2022-11-13T21:49:06.744Z,19.02
2022-11-13T21:51:52.406Z,19.02
2022-11-13T21:54:38.304Z,19.02
2022-11-13T21:57:27.152Z,19.03
2022-11-13T22:00:13.576Z,19.03
2022-11-13T22:02:59.052Z,19.04
2022-11-13T22:05:45.409Z,19.04
2022-11-13T22:08:31.760Z,19.03
2022-11-13T22:11:17.668Z,19.03
2022-11-13T22:14:04.794Z,19.04
2022-11-13T22:16:50.663Z,19.03
2022-11-13T22:19:36.635Z,19.04
2022-11-13T22:22:22.699Z,19.04
2022-11-13T22:25:08.896Z,19.05
2022-11-13T22:27:54.511Z,19.05
2022-11-13T22:30:40.389Z,19.05
2022-11-13T22:33:27.926Z,19.04
2022-11-13T22:36:17.056Z,19.04
2022-11-13T22:39:04.910Z,19.05
2022-11-13T22:41:50.717Z,19.05
2022-11-13T22:44:54.839Z,19.03
2022-11-13T22:47:42.037Z,19.04
2022-11-13T22:50:28.090Z,19.03
2022-11-13T22:53:14.789Z,19.03
2022-11-13T22:56:02.335Z,19.03
2022-11-13T22:58:48.456Z,19.02
2022-11-13T23:01:35.991Z,19.05
2022-11-13T23:04:22.042Z,19.05
2022-11-13T23:07:08.210Z,19.06
2022-11-13T23:09:53.919Z,19.05
2022-11-13T23:12:39.787Z,19.05
2022-11-13T23:15:25.773Z,19.04
2022-11-13T23:18:12.108Z,19.06
2022-11-13T23:20:58.162Z,19.06
2022-11-13T23:23:45.167Z,19.05
2022-11-13T23:26:31.275Z,19.06
2022-11-13T23:29:16.847Z,19.05
2022-11-13T23:32:02.571Z,19.07
2022-11-13T23:35:03.422Z,19.07
2022-11-13T23:37:49.329Z,19.08
2022-11-13T23:40:35.617Z,19.07
2022-11-13T23:43:22.038Z,19.07
2022-11-13T23:46:07.785Z,19.06
2022-11-13T23:48:53.771Z,19.08
2022-11-13T23:51:39.605Z,19.08
2022-11-13T23:54:25.442Z,19.07
2022-11-13T23:57:11.624Z,19.09
2022-11-13T23:59:57.259Z,19.08
